Time;durP1;ratioP1;P1;durP2;ratioP2;P2;SDS_P1;SDS_P2;PMS_P1;PMS_P2;Temp;Humidity;BMP_temperature;BMP_pressure;BME280_temperature;BME280_humidity;BME280_pressure;Samples;Min_cycle;Max_cycle;Signal;HPM_P1;HPM_P2
2022/05/05 00:01:58;;;;;;;16.95;6.47;;;8.30;99.90;;;;;;5023432;28;20060;-48
2022/05/05 00:04:23;;;;;;;11.52;5.95;;;8.30;99.90;;;;;;5033956;28;20041;-47
2022/05/05 00:06:49;;;;;;;13.52;5.70;;;8.30;99.90;;;;;;5030811;28;20071;-49
2022/05/05 00:09:15;;;;;;;12.93;6.07;;;8.30;99.90;;;;;;5024756;28;20147;-48
2022/05/05 00:14:27;;;;;;;13.48;6.05;;;8.30;99.90;;;;;;5014277;28;20057;-47
2022/05/05 00:16:58;;;;;;;12.70;5.90;;;8.30;99.90;;;;;;5039701;28;20495;-47
2022/05/05 00:19:25;;;;;;;14.50;6.65;;;8.30;99.90;;;;;;5026754;28;20037;-49
2022/05/05 00:21:51;;;;;;;10.68;5.68;;;8.20;99.90;;;;;;5025398;28;20069;-50
2022/05/05 00:24:16;;;;;;;18.17;6.22;;;8.20;99.90;;;;;;5024840;28;20487;-49
2022/05/05 00:26:43;;;;;;;12.10;5.90;;;8.20;99.90;;;;;;5033649;28;20038;-48
2022/05/05 00:29:08;;;;;;;13.65;6.50;;;8.10;99.90;;;;;;5031545;28;20418;-47
2022/05/05 00:31:34;;;;;;;12.32;5.90;;;8.10;99.90;;;;;;5033192;28;20144;-46
2022/05/05 00:34:00;;;;;;;15.48;6.88;;;8.10;99.90;;;;;;5032469;28;20037;-47
2022/05/05 00:36:25;;;;;;;13.00;6.18;;;8.00;99.90;;;;;;5025370;28;20454;-46
2022/05/05 00:38:51;;;;;;;12.73;6.25;;;8.00;99.90;;;;;;5031216;28;20048;-46
2022/05/05 00:41:16;;;;;;;16.80;6.22;;;8.00;99.90;;;;;;5035179;28;20034;-46
2022/05/05 00:43:42;;;;;;;13.55;5.90;;;8.00;99.90;;;;;;5033643;28;20046;-46
2022/05/05 00:46:08;;;;;;;16.52;6.28;;;8.00;99.90;;;;;;5013596;28;20487;-48
2022/05/05 00:48:33;;;;;;;12.38;6.78;;;8.00;99.90;;;;;;5029123;28;20033;-49
2022/05/05 00:50:59;;;;;;;12.80;6.25;;;8.00;99.90;;;;;;5023771;28;20100;-49
2022/05/05 00:53:25;;;;;;;14.82;6.05;;;7.90;99.90;;;;;;5025233;28;20045;-48
2022/05/05 00:56:05;;;;;;;15.18;6.93;;;7.90;99.90;;;;;;5018115;28;20042;-47
2022/05/05 00:58:31;;;;;;;13.45;5.90;;;7.90;99.90;;;;;;5025887;28;20083;-47
2022/05/05 01:01:01;;;;;;;13.18;6.22;;;7.90;99.90;;;;;;5032976;28;20451;-47
2022/05/05 01:03:27;;;;;;;13.52;6.50;;;7.90;99.90;;;;;;5024009;28;20048;-46
2022/05/05 01:05:52;;;;;;;15.55;6.47;;;7.90;99.90;;;;;;5031628;28;20415;-49
2022/05/05 01:08:18;;;;;;;17.23;6.03;;;7.80;99.90;;;;;;5028446;28;20477;-49
2022/05/05 01:10:44;;;;;;;12.30;6.35;;;7.90;99.90;;;;;;5029230;28;20526;-47
2022/05/05 01:13:10;;;;;;;14.85;6.75;;;7.80;99.90;;;;;;5031115;28;20128;-49
2022/05/05 01:15:36;;;;;;;18.50;7.15;;;7.80;99.90;;;;;;5013243;28;20069;-47
2022/05/05 01:18:02;;;;;;;11.88;6.60;;;7.80;99.90;;;;;;5023229;28;20050;-46
2022/05/05 01:20:27;;;;;;;12.60;6.30;;;7.80;99.90;;;;;;5031444;28;20048;-49
2022/05/05 01:22:53;;;;;;;14.20;6.60;;;7.80;99.90;;;;;;5032449;28;20120;-47
2022/05/05 01:28:13;;;;;;;13.10;6.93;;;7.80;99.90;;;;;;5029589;28;20041;-46
2022/05/05 01:30:41;;;;;;;11.00;6.05;;;7.80;99.90;;;;;;5031722;28;20048;-46
2022/05/05 01:33:11;;;;;;;12.60;6.28;;;7.80;99.90;;;;;;5031412;28;20037;-46
2022/05/05 01:35:38;;;;;;;14.05;6.95;;;7.70;99.90;;;;;;5012641;28;20038;-48
2022/05/05 01:38:03;;;;;;;16.25;7.47;;;7.70;99.90;;;;;;5018502;28;20033;-47
2022/05/05 01:40:29;;;;;;;13.13;6.90;;;7.60;99.90;;;;;;5033299;28;20104;-49
2022/05/05 01:42:55;;;;;;;11.00;7.18;;;7.70;99.90;;;;;;5031221;28;20041;-48
2022/05/05 01:45:20;;;;;;;13.13;7.72;;;7.70;99.90;;;;;;5026840;28;20104;-46
2022/05/05 01:47:46;;;;;;;13.52;7.30;;;7.70;99.90;;;;;;5031515;28;20483;-48
2022/05/05 01:50:12;;;;;;;14.43;7.55;;;7.70;99.90;;;;;;5031909;28;20103;-48
2022/05/05 01:52:37;;;;;;;13.15;7.32;;;7.70;99.90;;;;;;5032091;28;20407;-48
2022/05/05 01:55:04;;;;;;;14.07;7.50;;;7.70;99.90;;;;;;5031742;28;20491;-48
2022/05/05 01:57:29;;;;;;;16.45;6.93;;;7.70;99.90;;;;;;5031092;28;20045;-49
2022/05/05 01:59:55;;;;;;;13.57;7.55;;;7.70;99.90;;;;;;5028619;28;20045;-47
2022/05/05 02:02:20;;;;;;;11.57;6.93;;;7.70;99.90;;;;;;5024283;28;20038;-46
2022/05/05 02:04:46;;;;;;;15.43;7.50;;;7.70;99.90;;;;;;5032320;28;20033;-48
2022/05/05 02:07:11;;;;;;;13.50;7.82;;;7.70;99.90;;;;;;5031236;28;20086;-49
2022/05/05 02:09:37;;;;;;;16.05;7.28;;;7.70;99.90;;;;;;5031158;28;20046;-47
2022/05/05 02:12:03;;;;;;;17.35;7.63;;;7.70;99.90;;;;;;5029507;28;20033;-48
2022/05/05 02:14:29;;;;;;;17.98;7.82;;;7.70;99.90;;;;;;5027429;28;20037;-49
2022/05/05 02:16:54;;;;;;;13.73;7.53;;;7.60;99.90;;;;;;5023167;28;20043;-49
2022/05/05 02:19:20;;;;;;;16.25;7.57;;;7.60;99.90;;;;;;5029681;28;20125;-49
2022/05/05 02:21:45;;;;;;;17.48;7.68;;;7.60;99.90;;;;;;5015975;28;20407;-51
2022/05/05 02:24:11;;;;;;;11.43;7.45;;;7.60;99.90;;;;;;5011642;28;20583;-49
2022/05/05 02:26:36;;;;;;;18.45;8.20;;;7.60;99.90;;;;;;5026743;28;20043;-48
2022/05/05 02:29:02;;;;;;;14.48;8.35;;;7.50;99.90;;;;;;5037280;28;20076;-49
2022/05/05 02:31:28;;;;;;;14.75;8.00;;;7.50;99.90;;;;;;5031224;28;20552;-48
2022/05/05 02:33:53;;;;;;;16.40;7.75;;;7.50;99.90;;;;;;5031525;28;20387;-49
2022/05/05 02:39:03;;;;;;;18.13;8.10;;;7.40;99.90;;;;;;5030321;28;20088;-49
2022/05/05 02:41:28;;;;;;;15.95;8.65;;;7.40;99.90;;;;;;5031645;28;20076;-49
2022/05/05 02:43:54;;;;;;;12.95;8.15;;;7.40;99.90;;;;;;5029529;28;20051;-48
2022/05/05 02:46:19;;;;;;;15.90;8.73;;;7.40;99.90;;;;;;5011609;28;20038;-49
2022/05/05 02:48:45;;;;;;;19.23;8.20;;;7.40;99.90;;;;;;5017866;28;20096;-48
2022/05/05 02:51:10;;;;;;;19.60;9.70;;;7.40;99.90;;;;;;5031096;28;20045;-49
2022/05/05 02:56:20;;;;;;;14.70;8.63;;;7.30;99.90;;;;;;5031482;28;20431;-49
2022/05/05 02:58:46;;;;;;;16.90;8.70;;;7.20;99.90;;;;;;5029322;28;20041;-48
2022/05/05 03:01:12;;;;;;;16.17;8.55;;;7.20;99.90;;;;;;5028770;28;20368;-48
2022/05/05 03:03:38;;;;;;;21.00;9.18;;;7.10;99.90;;;;;;5034028;28;20033;-48
2022/05/05 03:06:03;;;;;;;21.73;9.60;;;7.00;99.90;;;;;;5021369;28;20045;-49
2022/05/05 03:08:29;;;;;;;14.63;9.05;;;7.00;99.90;;;;;;5011197;28;20042;-49
2022/05/05 03:10:54;;;;;;;17.75;9.48;;;6.90;99.90;;;;;;5013691;28;20415;-49
2022/05/05 03:13:20;;;;;;;17.00;9.10;;;6.90;99.90;;;;;;5037308;28;20094;-49
2022/05/05 03:15:45;;;;;;;13.95;8.45;;;6.90;99.90;;;;;;5029455;28;20034;-48
2022/05/05 03:18:11;;;;;;;17.60;9.32;;;6.90;99.90;;;;;;5034378;28;20477;-49
2022/05/05 03:20:36;;;;;;;16.60;9.50;;;6.80;99.90;;;;;;5033879;28;20517;-49
2022/05/05 03:23:02;;;;;;;22.45;11.18;;;6.80;99.90;;;;;;5034779;28;20195;-49
2022/05/05 03:25:28;;;;;;;16.80;8.85;;;6.90;99.90;;;;;;5035196;28;20105;-48
2022/05/05 03:27:54;;;;;;;15.07;9.52;;;6.80;99.90;;;;;;5033587;28;20076;-49
2022/05/05 03:30:19;;;;;;;13.10;7.82;;;6.80;99.90;;;;;;5031303;28;20038;-49
2022/05/05 03:32:45;;;;;;;12.60;7.57;;;6.80;99.90;;;;;;5034586;28;20079;-48
2022/05/05 03:35:10;;;;;;;13.02;8.75;;;6.70;99.90;;;;;;5034305;28;20128;-49
2022/05/05 03:37:36;;;;;;;17.08;9.10;;;6.70;99.90;;;;;;5033781;28;20033;-50
2022/05/05 03:40:02;;;;;;;16.85;9.68;;;6.70;99.90;;;;;;5034572;28;20506;-46
2022/05/05 03:42:28;;;;;;;19.35;10.18;;;6.70;99.90;;;;;;5024403;28;20044;-46
2022/05/05 03:44:54;;;;;;;17.88;9.88;;;6.60;99.90;;;;;;5034413;28;20045;-48
2022/05/05 03:47:19;;;;;;;24.25;11.18;;;6.60;99.90;;;;;;5033351;28;20043;-46
2022/05/05 03:49:45;;;;;;;14.65;9.60;;;6.60;99.90;;;;;;5032807;28;20034;-47
2022/05/05 03:52:11;;;;;;;19.33;10.40;;;6.60;99.90;;;;;;5034441;28;20045;-46
2022/05/05 03:54:37;;;;;;;18.95;9.98;;;6.60;99.90;;;;;;5034440;28;20048;-48
2022/05/05 03:57:03;;;;;;;18.98;10.02;;;6.60;99.90;;;;;;5025243;28;20042;-46
2022/05/05 03:59:28;;;;;;;21.92;11.00;;;6.50;99.90;;;;;;5033912;28;20458;-48
2022/05/05 04:01:54;;;;;;;18.38;10.45;;;6.40;99.90;;;;;;5032407;28;20037;-46
2022/05/05 04:04:20;;;;;;;20.45;10.20;;;6.40;99.90;;;;;;5029710;28;20038;-48
2022/05/05 04:06:45;;;;;;;16.65;9.23;;;6.40;99.90;;;;;;5023667;28;20041;-48
2022/05/05 04:09:11;;;;;;;20.35;9.07;;;6.30;99.90;;;;;;5033030;28;20084;-49
2022/05/05 04:11:37;;;;;;;15.68;8.98;;;6.20;99.90;;;;;;5036171;28;20036;-47
2022/05/05 04:14:03;;;;;;;19.10;10.02;;;6.10;99.90;;;;;;5031665;28;20480;-48
2022/05/05 04:16:33;;;;;;;18.45;9.25;;;6.10;99.90;;;;;;5033668;28;20041;-47
2022/05/05 04:18:59;;;;;;;19.80;10.02;;;6.00;99.90;;;;;;5013690;28;20092;-48
2022/05/05 04:21:25;;;;;;;19.00;9.27;;;6.10;99.90;;;;;;5021321;28;20037;-47
2022/05/05 04:23:51;;;;;;;16.95;9.60;;;6.10;99.90;;;;;;5033516;28;20099;-48
2022/05/05 04:26:17;;;;;;;16.38;9.70;;;6.20;99.90;;;;;;5035091;28;20037;-46
2022/05/05 04:28:46;;;;;;;17.45;9.65;;;6.20;99.90;;;;;;5017943;28;20030;-48
2022/05/05 04:31:13;;;;;;;19.73;10.25;;;6.10;99.90;;;;;;5012435;28;20510;-46
2022/05/05 04:33:39;;;;;;;25.00;10.43;;;6.10;99.90;;;;;;5038421;28;20035;-47
2022/05/05 04:36:05;;;;;;;16.40;10.40;;;6.00;99.90;;;;;;5034225;28;20418;-46
2022/05/05 04:38:30;;;;;;;16.13;9.63;;;5.90;99.90;;;;;;5033192;28;20029;-48
2022/05/05 04:40:56;;;;;;;18.27;10.15;;;5.90;99.90;;;;;;5024375;28;20506;-46
2022/05/05 04:43:21;;;;;;;18.55;9.82;;;5.80;99.90;;;;;;5033375;28;20037;-46
2022/05/05 04:45:47;;;;;;;18.15;10.10;;;5.90;99.90;;;;;;5032954;28;20041;-48
2022/05/05 04:48:12;;;;;;;16.67;9.40;;;5.90;99.90;;;;;;5032495;28;20491;-49
2022/05/05 04:50:38;;;;;;;15.80;9.35;;;5.90;99.90;;;;;;5079964;22;20048;-48
2022/05/05 04:53:04;;;;;;;15.10;9.75;;;5.90;99.90;;;;;;5066069;28;20553;-48
2022/05/05 04:55:29;;;;;;;19.63;9.40;;;5.90;99.90;;;;;;5049405;28;20041;-47
2022/05/05 04:57:55;;;;;;;16.35;9.70;;;5.90;99.90;;;;;;5052989;28;20036;-51
2022/05/05 05:00:22;;;;;;;18.15;9.52;;;5.80;99.90;;;;;;5052155;28;20041;-49
2022/05/05 05:02:48;;;;;;;14.95;9.85;;;5.80;99.90;;;;;;5052927;28;20502;-47
2022/05/05 05:05:13;;;;;;;19.67;10.50;;;5.80;99.90;;;;;;5052175;28;20076;-46
2022/05/05 05:07:39;;;;;;;19.55;10.10;;;5.80;99.90;;;;;;5060947;28;20564;-47
2022/05/05 05:10:05;;;;;;;19.48;10.60;;;5.90;99.90;;;;;;5049182;28;20062;-48
2022/05/05 05:12:31;;;;;;;20.23;10.48;;;6.00;99.90;;;;;;5051703;28;20098;-47
2022/05/05 05:14:56;;;;;;;18.55;10.25;;;6.10;99.90;;;;;;5051191;28;20045;-46
2022/05/05 05:17:22;;;;;;;16.80;10.15;;;6.10;99.90;;;;;;5049936;28;20077;-45
2022/05/05 05:19:48;;;;;;;23.40;10.60;;;6.20;99.90;;;;;;5048582;28;20048;-45
2022/05/05 05:22:13;;;;;;;18.92;10.30;;;6.20;99.90;;;;;;5052143;28;20040;-47
2022/05/05 05:24:39;;;;;;;19.55;10.35;;;6.20;99.90;;;;;;5065490;28;20101;-46
2022/05/05 05:27:05;;;;;;;20.58;11.15;;;6.20;99.90;;;;;;5050720;28;20798;-46
2022/05/05 05:29:31;;;;;;;19.17;11.05;;;6.30;99.90;;;;;;5051319;28;20501;-46
2022/05/05 05:31:56;;;;;;;22.27;11.27;;;6.30;99.90;;;;;;5052574;28;20051;-47
2022/05/05 05:34:22;;;;;;;18.90;12.23;;;6.30;99.90;;;;;;5052357;28;20520;-47
2022/05/05 05:36:51;;;;;;;24.48;12.38;;;6.30;99.90;;;;;;5052814;28;20098;-47
2022/05/05 05:39:17;;;;;;;17.23;11.05;;;6.40;99.90;;;;;;5036412;28;20143;-48
2022/05/05 05:41:43;;;;;;;19.63;11.30;;;6.50;99.90;;;;;;5041780;28;20111;-47
2022/05/05 05:44:08;;;;;;;19.23;10.98;;;6.60;99.90;;;;;;5032472;28;20179;-46
2022/05/05 05:46:37;;;;;;;56.20;12.70;;;6.60;99.90;;;;;;5039467;28;20041;-47
2022/05/05 05:49:05;;;;;;;57.13;12.63;;;6.80;99.90;;;;;;5043445;28;20154;-46
2022/05/05 05:51:31;;;;;;;57.42;12.20;;;7.00;99.90;;;;;;5062483;28;20105;-48
2022/05/05 05:53:57;;;;;;;37.67;11.43;;;7.20;99.90;;;;;;5043458;28;20042;-47
2022/05/05 05:56:22;;;;;;;32.83;12.52;;;7.50;99.90;;;;;;5026909;28;20029;-47
2022/05/05 05:58:48;;;;;;;31.90;12.13;;;7.70;99.90;;;;;;5051775;28;20032;-47
2022/05/05 06:01:14;;;;;;;25.23;13.07;;;7.90;99.90;;;;;;5057333;28;20025;-47
2022/05/05 06:03:54;;;;;;;24.90;13.05;;;8.10;99.90;;;;;;5044942;28;20039;-46
2022/05/05 06:06:21;;;;;;;28.00;12.98;;;8.30;99.90;;;;;;5043981;28;20616;-47
2022/05/05 06:08:47;;;;;;;23.48;13.32;;;8.40;99.90;;;;;;5050949;28;20083;-48
2022/05/05 06:11:13;;;;;;;26.10;13.57;;;8.80;99.90;;;;;;5031625;28;20045;-47
2022/05/05 06:13:39;;;;;;;19.58;12.57;;;9.50;99.90;;;;;;5032007;28;20120;-47
2022/05/05 06:16:06;;;;;;;19.60;12.25;;;9.80;99.90;;;;;;5032911;28;20076;-48
2022/05/05 06:18:32;;;;;;;23.50;12.43;;;9.90;99.90;;;;;;5036458;28;20034;-47
2022/05/05 06:20:58;;;;;;;20.40;13.10;;;9.70;99.90;;;;;;5041851;28;20183;-47
2022/05/05 06:23:24;;;;;;;22.83;13.15;;;9.60;99.90;;;;;;5052664;28;20111;-46
2022/05/05 06:25:49;;;;;;;22.38;12.95;;;9.50;99.90;;;;;;5059426;28;20036;-47
2022/05/05 06:28:15;;;;;;;22.23;13.27;;;9.50;99.90;;;;;;5050585;28;20037;-47
2022/05/05 06:30:40;;;;;;;25.10;14.20;;;9.40;99.90;;;;;;5040698;28;20068;-49
2022/05/05 06:33:06;;;;;;;21.20;13.60;;;9.40;99.90;;;;;;5041575;28;20454;-51
2022/05/05 06:35:32;;;;;;;23.45;12.88;;;9.50;99.90;;;;;;5040741;28;20064;-50
2022/05/05 06:37:57;;;;;;;19.00;12.32;;;9.60;99.90;;;;;;5034977;28;20045;-51
2022/05/05 06:40:24;;;;;;;20.77;12.75;;;9.70;99.90;;;;;;5040550;28;20043;-50
2022/05/05 06:42:50;;;;;;;24.00;12.75;;;9.80;99.90;;;;;;5035208;28;20044;-49
2022/05/05 06:45:16;;;;;;;23.17;14.02;;;9.90;99.90;;;;;;5039886;28;20045;-52
2022/05/05 06:47:42;;;;;;;22.92;12.75;;;10.00;99.90;;;;;;5042372;28;20033;-51
2022/05/05 06:50:08;;;;;;;28.77;13.63;;;10.10;99.90;;;;;;5039058;28;20124;-52
2022/05/05 06:52:33;;;;;;;21.35;13.32;;;10.30;99.90;;;;;;5038869;28;20488;-50
2022/05/05 06:55:00;;;;;;;22.88;13.02;;;10.40;99.90;;;;;;5040455;28;20045;-50
2022/05/05 06:57:26;;;;;;;25.13;13.27;;;10.60;99.90;;;;;;5040133;28;20033;-52
2022/05/05 06:59:52;;;;;;;18.83;11.93;;;10.70;99.90;;;;;;5039316;28;20078;-49
2022/05/05 07:02:17;;;;;;;21.42;12.00;;;10.90;99.90;;;;;;5039832;28;20046;-50
2022/05/05 07:05:23;;;;;;;17.23;11.05;;;11.10;99.90;;;;;;5035882;28;20044;-49
2022/05/05 07:07:29;;;;;;;22.52;12.35;;;11.30;99.90;;;;;;5037302;28;20046;-48
2022/05/05 07:12:38;;;;;;;27.67;11.70;;;11.60;99.90;;;;;;5038208;28;20129;-49
2022/05/05 07:15:04;;;;;;;21.50;11.73;;;11.80;99.90;;;;;;5044439;28;20123;-48
2022/05/05 07:17:30;;;;;;;22.25;10.20;;;12.00;99.90;;;;;;5037041;28;20034;-49
2022/05/05 07:19:55;;;;;;;19.73;9.90;;;12.20;99.90;;;;;;5035629;28;20042;-48
2022/05/05 07:22:21;;;;;;;18.75;9.30;;;12.30;99.90;;;;;;5036503;28;20041;-49
2022/05/05 07:24:47;;;;;;;20.00;10.55;;;12.50;99.90;;;;;;5046337;28;20138;-49
2022/05/05 07:27:13;;;;;;;20.10;8.80;;;12.60;99.90;;;;;;5052690;28;20114;-46
2022/05/05 07:29:39;;;;;;;20.67;8.50;;;12.80;99.90;;;;;;5043415;28;20368;-48
2022/05/05 07:32:05;;;;;;;19.33;7.18;;;13.00;99.90;;;;;;5045442;28;20033;-48
2022/05/05 07:34:30;;;;;;;14.15;6.80;;;13.10;99.90;;;;;;5045539;28;20062;-47
2022/05/05 07:36:56;;;;;;;16.60;7.75;;;13.20;99.90;;;;;;5054579;28;20043;-48
2022/05/05 07:39:22;;;;;;;16.42;7.95;;;13.30;99.90;;;;;;5038546;28;20102;-47
2022/05/05 07:41:49;;;;;;;19.17;9.02;;;13.50;99.90;;;;;;5044727;28;20037;-47
2022/05/05 07:44:15;;;;;;;15.50;8.32;;;13.70;99.90;;;;;;5048555;28;20482;-47
2022/05/05 07:46:41;;;;;;;15.13;7.85;;;13.70;99.90;;;;;;5037640;28;20064;-49
2022/05/05 07:49:07;;;;;;;15.48;7.32;;;13.90;99.90;;;;;;5036415;28;20045;-48
2022/05/05 07:51:34;;;;;;;13.10;6.45;;;14.00;99.80;;;;;;5038991;28;20051;-47
2022/05/05 07:56:44;;;;;;;15.80;7.25;;;14.20;96.70;;;;;;5031176;28;20469;-48
2022/05/05 07:59:10;;;;;;;15.32;8.30;;;14.30;97.10;;;;;;5032747;28;20041;-48
2022/05/05 08:01:36;;;;;;;14.75;7.28;;;14.40;97.30;;;;;;5034083;28;20048;-47
2022/05/05 08:04:02;;;;;;;17.30;7.50;;;14.50;96.80;;;;;;5043208;28;20414;-47
2022/05/05 08:06:28;;;;;;;13.98;7.45;;;14.60;96.30;;;;;;5054177;28;20068;-49
2022/05/05 08:08:53;;;;;;;13.43;7.45;;;14.60;95.60;;;;;;5053701;28;20087;-48
2022/05/05 08:11:19;;;;;;;16.77;8.50;;;14.60;95.70;;;;;;5053950;28;20037;-48
2022/05/05 08:13:45;;;;;;;14.45;7.35;;;14.70;96.10;;;;;;5033264;28;20125;-48
2022/05/05 08:16:11;;;;;;;17.55;7.93;;;14.80;95.30;;;;;;5050923;28;20056;-47
2022/05/05 08:18:38;;;;;;;17.25;7.68;;;15.00;95.10;;;;;;5053086;28;20032;-48
2022/05/05 08:21:10;;;;;;;14.93;7.40;;;15.10;96.00;;;;;;5053924;28;20072;-51
2022/05/05 08:23:36;;;;;;;15.60;7.22;;;15.30;95.80;;;;;;5051035;28;20444;-49
2022/05/05 08:28:45;;;;;;;11.88;6.72;;;15.40;95.30;;;;;;5047038;28;20060;-46
2022/05/05 08:31:12;;;;;;;16.05;7.10;;;15.60;94.10;;;;;;5044993;28;20037;-47
2022/05/05 08:33:38;;;;;;;13.95;6.97;;;15.60;94.20;;;;;;5053865;28;20072;-47
2022/05/05 08:36:05;;;;;;;13.48;6.75;;;15.70;93.00;;;;;;5053799;28;20068;-47
2022/05/05 08:38:32;;;;;;;12.57;6.88;;;15.60;93.30;;;;;;5053455;28;20045;-51
2022/05/05 08:40:58;;;;;;;13.70;7.38;;;15.60;92.60;;;;;;5060666;28;20041;-47
2022/05/05 08:43:24;;;;;;;11.48;7.28;;;15.60;91.20;;;;;;5047028;28;20030;-48
2022/05/05 08:45:55;;;;;;;13.35;7.40;;;15.60;91.60;;;;;;5068802;28;20048;-50
2022/05/05 08:48:21;;;;;;;13.93;7.77;;;15.60;92.00;;;;;;5053603;28;20045;-48
2022/05/05 08:50:55;;;;;;;12.80;6.95;;;15.60;92.40;;;;;;5036361;28;20548;-51
2022/05/05 08:53:25;;;;;;;14.18;7.32;;;15.70;90.50;;;;;;5033326;28;20120;-48
2022/05/05 08:55:50;;;;;;;14.27;7.30;;;15.80;91.60;;;;;;5033145;28;20491;-48
2022/05/05 08:58:17;;;;;;;10.77;7.05;;;16.00;92.30;;;;;;5036382;28;20116;-51
2022/05/05 09:00:43;;;;;;;12.52;7.13;;;16.20;91.90;;;;;;5045392;28;20037;-47
2022/05/05 09:03:10;;;;;;;14.35;7.20;;;16.30;91.40;;;;;;5052840;28;20183;-49
2022/05/05 09:05:44;;;;;;;12.13;8.07;;;16.30;91.40;;;;;;5053292;28;20041;-51
2022/05/05 09:08:25;;;;;;;13.52;7.47;;;16.30;89.20;;;;;;5051458;28;20045;-51
2022/05/05 09:10:52;;;;;;;13.98;7.68;;;16.30;89.40;;;;;;5049383;28;20041;-48
2022/05/05 09:13:26;;;;;;;11.50;7.28;;;16.30;88.90;;;;;;5045312;28;20041;-47
2022/05/05 09:15:53;;;;;;;14.40;7.05;;;16.30;86.30;;;;;;5052626;28;20403;-51
2022/05/05 09:18:21;;;;;;;14.15;7.55;;;16.20;88.80;;;;;;5052375;28;20033;-48
2022/05/05 09:20:49;;;;;;;14.07;7.32;;;16.20;88.20;;;;;;5047172;28;20039;-47
2022/05/05 09:26:25;;;;;;;12.05;7.80;;;16.20;90.90;;;;;;5047672;28;20183;-51
2022/05/05 09:28:51;;;;;;;14.32;7.25;;;16.40;90.80;;;;;;5046651;28;20040;-48
2022/05/05 09:31:17;;;;;;;12.82;7.07;;;16.50;90.20;;;;;;5032278;28;20046;-51
2022/05/05 09:33:43;;;;;;;12.43;7.47;;;16.50;88.80;;;;;;5032467;28;20042;-47
2022/05/05 09:36:14;;;;;;;11.68;7.82;;;16.60;89.10;;;;;;5034659;28;20037;-50
2022/05/05 09:38:58;;;;;;;13.25;7.47;;;16.60;89.10;;;;;;5043493;28;20030;-48
2022/05/05 09:41:34;;;;;;;14.65;7.60;;;16.60;88.70;;;;;;5036539;28;20032;-51
2022/05/05 09:44:12;;;;;;;15.25;8.00;;;16.70;86.50;;;;;;5051948;28;20033;-50
2022/05/05 09:46:38;;;;;;;12.70;8.07;;;16.80;87.20;;;;;;5052350;28;20120;-50
2022/05/05 09:49:07;;;;;;;12.20;7.93;;;16.80;87.70;;;;;;5040768;28;20044;-49
2022/05/05 09:51:41;;;;;;;12.10;7.53;;;16.80;89.00;;;;;;5030940;28;20514;-52
2022/05/05 09:59:46;;;;;;;17.33;7.18;;;16.70;85.50;;;;;;5050443;28;20089;-49
2022/05/05 10:04:00;;;;;;;12.38;7.30;;;16.70;85.00;;;;;;5039624;28;20446;-48
2022/05/05 10:05:08;;;;;;;14.43;7.53;;;16.80;83.30;;;;;;5031824;28;20060;-48
2022/05/05 10:07:38;;;;;;;14.95;7.82;;;16.90;82.00;;;;;;5013907;28;20049;-49
2022/05/05 10:10:06;;;;;;;15.35;7.75;;;16.90;83.10;;;;;;5016345;28;20419;-47
2022/05/05 10:12:34;;;;;;;14.13;8.02;;;17.00;81.60;;;;;;5050839;28;20040;-51
2022/05/05 10:15:00;;;;;;;11.02;7.55;;;17.00;79.70;;;;;;5033938;28;20044;-50
2022/05/05 10:17:26;;;;;;;14.30;7.38;;;17.00;80.00;;;;;;5051273;28;20483;-50
2022/05/05 10:19:52;;;;;;;12.32;7.72;;;17.00;81.30;;;;;;5050903;28;20093;-50
2022/05/05 10:22:22;;;;;;;11.20;7.22;;;17.10;81.80;;;;;;5050748;28;20079;-50
2022/05/05 10:24:57;;;;;;;12.57;7.20;;;17.10;82.50;;;;;;5045833;28;20080;-51
2022/05/05 10:27:23;;;;;;;13.88;7.30;;;17.20;79.60;;;;;;5043720;28;20087;-48
2022/05/05 10:29:48;;;;;;;13.23;7.00;;;17.30;77.70;;;;;;5040393;28;20037;-51
2022/05/05 10:32:21;;;;;;;10.77;6.53;;;17.20;78.70;;;;;;5045404;28;20037;-48
2022/05/05 10:34:54;;;;;;;9.20;5.90;;;17.20;78.20;;;;;;5050428;28;20032;-49
2022/05/05 10:37:22;;;;;;;8.65;5.93;;;17.40;78.60;;;;;;5048932;28;20040;-48
2022/05/05 10:39:59;;;;;;;11.98;6.68;;;17.50;79.20;;;;;;5038083;28;20037;-50
2022/05/05 10:42:31;;;;;;;12.88;6.75;;;17.70;79.60;;;;;;5036592;28;20038;-46
2022/05/05 10:45:16;;;;;;;11.15;6.78;;;17.90;76.60;;;;;;5043784;28;20060;-47
2022/05/05 10:47:58;;;;;;;10.18;6.32;;;18.00;71.70;;;;;;5056484;28;20040;-47
2022/05/05 10:50:30;;;;;;;8.50;6.00;;;18.00;74.30;;;;;;5071794;22;20068;-48
2022/05/05 10:53:00;;;;;;;9.43;5.68;;;18.00;73.80;;;;;;5049421;28;20322;-48
2022/05/05 10:55:31;;;;;;;8.48;5.22;;;18.00;73.90;;;;;;5063249;28;20029;-48
2022/05/05 10:57:57;;;;;;;10.35;5.68;;;17.90;73.00;;;;;;5067317;28;20051;-49
2022/05/05 11:00:23;;;;;;;10.55;5.55;;;17.90;74.10;;;;;;5058154;28;20060;-48
2022/05/05 11:02:58;;;;;;;8.98;5.78;;;18.00;74.70;;;;;;5043200;28;20503;-47
2022/05/05 11:05:31;;;;;;;7.82;5.22;;;18.00;75.00;;;;;;5031449;28;20095;-47
2022/05/05 11:08:07;;;;;;;7.80;5.30;;;18.20;74.80;;;;;;5035971;28;20037;-50
2022/05/05 11:10:45;;;;;;;7.97;5.60;;;18.40;73.80;;;;;;5038814;28;20041;-49
2022/05/05 11:13:35;;;;;;;9.88;5.53;;;18.40;67.30;;;;;;5047963;28;20658;-48
2022/05/05 11:22:19;;;;;;;12.02;6.00;;;18.30;67.70;;;;;;5050531;28;20043;-51
2022/05/05 11:24:46;;;;;;;9.07;6.15;;;18.40;66.00;;;;;;5043057;28;20048;-49
2022/05/05 11:27:16;;;;;;;9.52;6.05;;;18.40;65.80;;;;;;5049144;28;20518;-47
2022/05/05 11:29:53;;;;;;;10.82;6.55;;;18.30;67.80;;;;;;5044963;28;20047;-50
2022/05/05 11:32:37;;;;;;;10.73;6.50;;;18.40;69.90;;;;;;5042416;28;20061;-48
2022/05/05 11:35:10;;;;;;;11.10;6.90;;;18.40;71.40;;;;;;5035257;28;20075;-49
2022/05/05 11:37:35;;;;;;;;;;;18.50;71.90;;;;;;5043424;28;20128;-50
2022/05/05 11:40:02;;;;;;;11.40;7.00;;;18.50;70.20;;;;;;5059404;28;20015;-48
2022/05/05 11:42:28;;;;;;;9.52;6.32;;;18.50;71.40;;;;;;5033401;28;20045;-47
2022/05/05 11:44:53;;;;;;;14.05;8.10;;;18.50;71.80;;;;;;5053551;28;20045;-50
2022/05/05 11:47:21;;;;;;;13.93;8.25;;;18.60;72.60;;;;;;5046747;28;20083;-49
2022/05/05 11:49:48;;;;;;;11.07;7.35;;;18.70;71.20;;;;;;5046052;28;20449;-50
2022/05/05 11:52:24;;;;;;;13.30;7.43;;;18.70;71.70;;;;;;5033720;28;20506;-49
2022/05/05 11:54:55;;;;;;;14.52;7.13;;;18.70;72.30;;;;;;5053479;28;20028;-48
2022/05/05 11:57:40;;;;;;;11.40;6.75;;;18.80;71.20;;;;;;5052270;28;20033;-48
2022/05/05 12:02:52;;;;;;;16.15;7.80;;;18.90;71.40;;;;;;5047331;28;20505;-53
2022/05/05 12:05:21;;;;;;;12.07;7.93;;;18.90;72.00;;;;;;5043033;28;20033;-52
2022/05/05 12:07:47;;;;;;;10.25;7.28;;;19.00;71.70;;;;;;5042528;28;20042;-49
2022/05/05 12:10:14;;;;;;;10.98;8.52;;;19.00;71.20;;;;;;5035219;28;20033;-52
2022/05/05 12:12:48;;;;;;;11.00;8.38;;;19.10;71.60;;;;;;5037406;28;20045;-49
2022/05/05 12:15:16;;;;;;;15.18;8.68;;;19.10;71.70;;;;;;5041913;28;20103;-51
2022/05/05 12:17:50;;;;;;;13.27;8.63;;;19.10;69.70;;;;;;5043785;28;20122;-51
2022/05/05 12:20:21;;;;;;;11.85;7.82;;;19.10;70.90;;;;;;5041320;28;20040;-49
2022/05/05 12:22:54;;;;;;;12.52;8.50;;;19.20;71.50;;;;;;5038840;28;20060;-49
2022/05/05 12:25:20;;;;;;;14.55;8.40;;;19.30;71.40;;;;;;5037982;28;20029;-49
2022/05/05 12:28:08;;;;;;;15.00;8.00;;;19.40;68.90;;;;;;5043137;28;20037;-49
2022/05/05 12:30:41;;;;;;;13.80;10.05;;;19.50;71.20;;;;;;5039695;28;20596;-48
2022/05/05 12:33:12;;;;;;;12.75;9.70;;;19.60;71.80;;;;;;5043448;28;20069;-49
2022/05/05 12:35:40;;;;;;;14.18;9.30;;;19.70;69.30;;;;;;5034530;28;20037;-50
2022/05/05 12:38:07;;;;;;;24.77;9.05;;;19.70;69.10;;;;;;5036649;28;20116;-50
2022/05/05 12:40:33;;;;;;;29.15;9.73;;;19.60;70.50;;;;;;5037979;28;20068;-51
2022/05/05 12:43:01;;;;;;;24.88;8.73;;;19.60;71.50;;;;;;5039817;28;20049;-48
2022/05/05 12:45:30;;;;;;;18.95;9.70;;;19.80;72.00;;;;;;5040515;28;20045;-48
2022/05/05 12:47:59;;;;;;;13.35;9.35;;;20.00;72.20;;;;;;5044793;28;20037;-48
2022/05/05 12:50:46;;;;;;;16.00;8.93;;;20.10;71.30;;;;;;5046278;28;20033;-49
2022/05/05 13:01:31;;;;;;;19.00;8.57;;;20.20;70.20;;;;;;5048093;28;20044;-49
2022/05/05 13:04:10;;;;;;;14.38;9.45;;;20.20;68.50;;;;;;5047316;28;20052;-47
2022/05/05 13:06:38;;;;;;;12.30;8.45;;;20.20;66.80;;;;;;5051856;28;20046;-49
2022/05/05 13:09:05;;;;;;;14.05;7.88;;;20.00;66.60;;;;;;5050403;28;20049;-48
2022/05/05 13:11:32;;;;;;;13.35;9.52;;;20.10;66.30;;;;;;5015541;28;20402;-48
2022/05/05 13:13:58;;;;;;;11.63;8.38;;;20.20;66.30;;;;;;5032974;28;20041;-49
2022/05/05 13:16:27;;;;;;;10.77;7.68;;;20.20;66.90;;;;;;5050998;28;20075;-48
2022/05/05 13:18:52;;;;;;;11.82;7.82;;;20.20;66.00;;;;;;5052894;28;20037;-48
2022/05/05 13:21:18;;;;;;;13.00;7.78;;;20.30;66.20;;;;;;5043508;28;20383;-48
2022/05/05 13:23:43;;;;;;;11.30;7.53;;;20.40;66.10;;;;;;5052493;28;20041;-47
2022/05/05 13:26:11;;;;;;;11.13;7.32;;;20.40;65.20;;;;;;5038872;28;20045;-49
2022/05/05 13:28:37;;;;;;;10.60;7.28;;;20.50;64.90;;;;;;5042208;28;20406;-50